createdAt,value
2019-05-10T00:00:45.195Z,100338.69
2019-05-10T00:06:05.320Z,100340.52
2019-05-10T00:11:26.854Z,100351.25
2019-05-10T00:16:29.035Z,100362.56
2019-05-10T00:21:32.325Z,100370.61
2019-05-10T00:26:34.390Z,100386.26
2019-05-10T00:31:36.309Z,100393.52
2019-05-10T00:36:38.383Z,100411.67
2019-05-10T00:41:40.190Z,100419.84
2019-05-10T00:46:42.129Z,100429.08
2019-05-10T00:51:44.064Z,100431.83
2019-05-10T00:56:46.307Z,100442.03
2019-05-10T01:01:49.420Z,100437.27
2019-05-10T01:06:51.497Z,100450.41
2019-05-10T01:11:53.398Z,100449.70
2019-05-10T01:16:55.411Z,100461.61
2019-05-10T01:21:57.223Z,100464.36
2019-05-10T01:26:59.377Z,100476.95
2019-05-10T01:32:01.369Z,100477.65
2019-05-10T01:37:03.388Z,100473.66
2019-05-10T01:42:05.293Z,100473.53
2019-05-10T01:47:07.110Z,100504.90
2019-05-10T01:52:09.014Z,100520.98
2019-05-10T01:57:10.948Z,100525.46
2019-05-10T02:02:12.866Z,100539.17
2019-05-10T02:07:15.292Z,100546.44
2019-05-10T02:12:17.202Z,100554.09
2019-05-10T02:17:21.219Z,100564.67
2019-05-10T02:22:23.150Z,100559.95
2019-05-10T02:27:26.158Z,100564.66
2019-05-10T02:32:27.982Z,100582.20
2019-05-10T02:37:30.198Z,100599.77
2019-05-10T02:42:32.016Z,100603.09
2019-05-10T02:47:35.119Z,100603.61
2019-05-10T02:52:39.113Z,100615.12
2019-05-10T02:57:42.407Z,100623.16
2019-05-10T03:02:44.903Z,100626.81
2019-05-10T03:07:47.597Z,100635.17
2019-05-10T03:12:52.229Z,100640.85
2019-05-10T03:17:56.190Z,100650.84
2019-05-10T03:22:59.253Z,100664.59
2019-05-10T03:28:01.175Z,100662.74
2019-05-10T03:33:03.232Z,100673.11
2019-05-10T03:38:11.118Z,100675.61
2019-05-10T03:43:13.193Z,100684.31
2019-05-10T03:48:15.019Z,100688.80
2019-05-10T03:53:19.447Z,100688.80
2019-05-10T03:58:21.332Z,100700.61
2019-05-10T04:03:25.338Z,100699.95
2019-05-10T04:08:29.157Z,100708.07
2019-05-10T04:13:31.078Z,100715.13
2019-05-10T04:18:35.819Z,100724.92
2019-05-10T04:23:39.392Z,100730.73
2019-05-10T04:28:42.957Z,100735.67
2019-05-10T04:33:46.499Z,100745.87
2019-05-10T04:38:48.608Z,100757.07
2019-05-10T04:43:50.833Z,100757.47
2019-05-10T04:48:54.887Z,100769.44
2019-05-10T04:54:00.450Z,100771.73
2019-05-10T04:59:03.586Z,100769.36
2019-05-10T05:04:07.257Z,100787.97
2019-05-10T05:09:09.194Z,100782.43
2019-05-10T05:14:11.136Z,100784.61
2019-05-10T05:19:14.202Z,100795.78
2019-05-10T05:24:22.324Z,100793.63
2019-05-10T05:29:20.360Z,100806.84
2019-05-10T05:34:22.308Z,100808.80
2019-05-10T05:39:24.165Z,100811.84
2019-05-10T05:44:28.900Z,100819.47
2019-05-10T05:49:30.710Z,100829.19
2019-05-10T05:54:34.063Z,100827.54
2019-05-10T05:59:37.193Z,100838.23
2019-05-10T06:04:40.732Z,100848.98
2019-05-10T06:09:44.246Z,100861.20
2019-05-10T06:14:49.991Z,100870.87
2019-05-10T06:19:51.767Z,100884.50
2019-05-10T06:24:54.027Z,100892.23
2019-05-10T06:29:56.034Z,100904.46
2019-05-10T06:34:57.972Z,100908.14
2019-05-10T06:40:02.892Z,100915.83
2019-05-10T06:45:14.285Z,100933.74
2019-05-10T06:50:12.323Z,100939.91
2019-05-10T06:55:14.296Z,100947.30
2019-05-10T07:00:17.677Z,100952.31
2019-05-10T07:05:19.690Z,100962.19
2019-05-10T07:10:25.167Z,100972.41
2019-05-10T07:15:25.479Z,100974.92
2019-05-10T07:20:29.621Z,100979.11
2019-05-10T07:25:37.699Z,100987.81
2019-05-10T07:30:41.612Z,100987.11
2019-05-10T07:35:45.123Z,100996.81
2019-05-10T07:40:48.810Z,100993.91
2019-05-10T07:45:50.765Z,101000.99
2019-05-10T07:50:52.761Z,101003.47
2019-05-10T07:55:59.935Z,101003.32
2019-05-10T08:00:58.670Z,100995.88
2019-05-10T08:06:02.292Z,101010.14
2019-05-10T08:11:04.209Z,101014.77
2019-05-10T08:16:11.803Z,101017.67
2019-05-10T08:21:21.820Z,101026.59
2019-05-10T08:26:24.127Z,101038.83
2019-05-10T08:31:25.915Z,101042.59
2019-05-10T08:36:28.815Z,101043.62
2019-05-10T08:41:32.682Z,101057.16
2019-05-10T08:46:41.282Z,101065.75
2019-05-10T08:51:43.788Z,101068.91
2019-05-10T08:56:46.686Z,101072.62
2019-05-10T09:01:50.896Z,101077.14
2019-05-10T09:06:55.555Z,101086.47
2019-05-10T09:11:57.733Z,101093.92
2019-05-10T09:17:05.074Z,101094.81
2019-05-10T09:22:06.898Z,101103.39
2019-05-10T09:27:08.918Z,101103.48
2019-05-10T09:32:12.588Z,101107.91
2019-05-10T09:37:17.697Z,101120.05
2019-05-10T09:42:26.424Z,101129.90
2019-05-10T09:47:23.101Z,101131.94
2019-05-10T09:52:26.397Z,101132.77
2019-05-10T09:57:32.284Z,101135.45
2019-05-10T10:02:34.435Z,101138.42
2019-05-10T10:07:37.367Z,101141.30
2019-05-10T10:12:39.464Z,101148.14
2019-05-10T10:17:42.491Z,101151.77
2019-05-10T10:22:52.616Z,101151.38
2019-05-10T10:27:53.141Z,101157.07
2019-05-10T10:32:55.292Z,101160.19
2019-05-10T10:38:02.226Z,101151.67
2019-05-10T10:43:00.923Z,101155.78
2019-05-10T10:48:10.643Z,101165.28
2019-05-10T10:53:08.010Z,101162.56
2019-05-10T10:58:10.140Z,101159.20
2019-05-10T11:03:12.061Z,101161.91
2019-05-10T11:08:17.763Z,101162.81
2019-05-10T11:13:39.862Z,101163.32
2019-05-10T11:18:23.447Z,101162.58
2019-05-10T11:23:34.008Z,101163.28
2019-05-10T11:28:30.131Z,101156.64
2019-05-10T11:33:33.978Z,101163.41
2019-05-10T11:38:36.151Z,101161.02
2019-05-10T11:43:38.612Z,101162.70
2019-05-10T11:48:42.667Z,101165.23
2019-05-10T11:53:49.082Z,101157.64
2019-05-10T11:58:55.554Z,101170.58
2019-05-10T12:03:56.571Z,101171.88
2019-05-10T12:09:02.149Z,101178.97
2019-05-10T12:14:02.698Z,101181.72
2019-05-10T12:19:17.065Z,101179.95
2019-05-10T12:24:31.181Z,101179.14
2019-05-10T12:29:18.155Z,101185.34
2019-05-10T12:34:20.703Z,101198.66
2019-05-10T12:39:24.581Z,101197.67
2019-05-10T12:44:28.556Z,101195.45
2019-05-10T12:49:31.510Z,101198.88
2019-05-10T12:54:35.768Z,101197.33
2019-05-10T12:59:37.628Z,101195.92
2019-05-10T13:04:52.466Z,101200.36
2019-05-10T13:09:56.086Z,101206.89
2019-05-10T13:14:57.004Z,101202.42
2019-05-10T13:20:00.599Z,101208.12
2019-05-10T13:25:03.941Z,101216.20
2019-05-10T13:30:06.962Z,101228.12
2019-05-10T13:35:09.006Z,101237.23
2019-05-10T13:40:13.667Z,101243.55
2019-05-10T13:45:15.661Z,101240.09
2019-05-10T13:50:19.113Z,101244.70
2019-05-10T13:55:24.793Z,101246.63
2019-05-10T14:00:34.231Z,101252.36
2019-05-10T14:05:33.093Z,101262.58
2019-05-10T14:10:36.727Z,101264.49
2019-05-10T14:15:38.748Z,101259.55
2019-05-10T14:20:40.651Z,101270.03
2019-05-10T14:25:42.549Z,101275.36
2019-05-10T14:30:46.961Z,101262.23
2019-05-10T14:35:48.414Z,101268.28
2019-05-10T14:40:50.284Z,101262.58
2019-05-10T14:45:56.637Z,101258.98
2019-05-10T14:51:03.044Z,101262.70
2019-05-10T14:56:07.893Z,101253.34
2019-05-10T15:01:06.639Z,101260.17
2019-05-10T15:06:08.882Z,101261.66
2019-05-10T15:11:11.976Z,101267.98
2019-05-10T15:16:26.083Z,101268.02
2019-05-10T15:21:18.517Z,101266.84
2019-05-10T15:26:20.511Z,101263.92
2019-05-10T15:31:23.671Z,101250.94
2019-05-10T15:36:29.836Z,101259.57
2019-05-10T15:41:30.611Z,101250.37
2019-05-10T15:46:38.690Z,101253.78
2019-05-10T15:51:36.894Z,101260.70
2019-05-10T15:56:41.475Z,101256.77
2019-05-10T16:01:46.025Z,101253.96
2019-05-10T16:06:50.983Z,101259.45
2019-05-10T16:11:56.186Z,101255.70
2019-05-10T16:17:00.678Z,101255.89
2019-05-10T16:22:02.585Z,101254.02
2019-05-10T16:27:04.840Z,101246.28
2019-05-10T16:32:06.833Z,101251.81
2019-05-10T16:37:10.661Z,101249.63
2019-05-10T16:42:12.573Z,101249.47
2019-05-10T16:47:14.493Z,101251.04
2019-05-10T16:52:19.515Z,101256.06
2019-05-10T16:57:20.525Z,101246.12
2019-05-10T17:02:25.465Z,101246.25
2019-05-10T17:07:27.532Z,101249.63
2019-05-10T17:12:29.462Z,101242.72
2019-05-10T17:17:37.077Z,101244.13
2019-05-10T17:22:35.550Z,101248.45
2019-05-10T17:27:37.491Z,101236.17
2019-05-10T17:32:39.610Z,101247.97
2019-05-10T17:37:41.750Z,101244.66
2019-05-10T17:42:51.506Z,101241.16
2019-05-10T17:47:53.107Z,101239.77
2019-05-10T17:52:56.428Z,101242.23
2019-05-10T17:57:58.854Z,101243.62
2019-05-10T18:03:00.752Z,101240.09
2019-05-10T18:08:02.702Z,101237.58
2019-05-10T18:13:05.260Z,101243.63
2019-05-10T18:18:07.473Z,101247.13
2019-05-10T18:23:09.508Z,101261.58
2019-05-10T18:28:11.558Z,101261.03
2019-05-10T18:33:19.142Z,101260.34
2019-05-10T18:38:24.045Z,101271.39
2019-05-10T18:43:26.136Z,101284.79
2019-05-10T18:48:30.632Z,101297.95
2019-05-10T18:53:32.684Z,101289.17
2019-05-10T18:58:34.599Z,101281.06
2019-05-10T19:03:36.598Z,101284.77
2019-05-10T19:08:38.498Z,101290.30
2019-05-10T19:13:47.331Z,101293.87
2019-05-10T19:18:44.250Z,101301.69
2019-05-10T19:23:46.100Z,101304.99
2019-05-10T19:28:47.976Z,101297.48
2019-05-10T19:33:49.920Z,101301.11
2019-05-10T19:38:51.954Z,101302.23
2019-05-10T19:44:02.675Z,101321.65
2019-05-10T19:49:00.347Z,101324.28
2019-05-10T19:54:02.966Z,101325.08
2019-05-10T19:59:10.913Z,101326.80
2019-05-10T20:04:09.559Z,101330.41
2019-05-10T20:09:11.582Z,101330.51
2019-05-10T20:14:15.337Z,101341.01
2019-05-10T20:19:17.219Z,101337.08
2019-05-10T20:24:23.196Z,101326.90
2019-05-10T20:29:26.423Z,101329.14
2019-05-10T20:34:31.190Z,101323.97
2019-05-10T20:39:35.041Z,101327.58
2019-05-10T20:44:37.054Z,101326.36
2019-05-10T20:49:41.314Z,101326.16
2019-05-10T20:54:44.787Z,101327.81
2019-05-10T20:59:47.602Z,101327.50
2019-05-10T21:04:49.590Z,101319.89
2019-05-10T21:09:56.170Z,101314.55
2019-05-10T21:14:58.303Z,101316.82
2019-05-10T21:20:04.593Z,101314.27
2019-05-10T21:25:07.741Z,101310.48
2019-05-10T21:30:15.221Z,101298.17
2019-05-10T21:35:18.979Z,101302.69
2019-05-10T21:40:20.952Z,101299.67
2019-05-10T21:45:23.035Z,101296.93
2019-05-10T21:50:25.021Z,101297.34
2019-05-10T21:55:27.889Z,101302.95
2019-05-10T22:00:34.102Z,101301.77
2019-05-10T22:05:36.278Z,101290.66
2019-05-10T22:10:38.218Z,101293.48
2019-05-10T22:15:40.738Z,101296.59
2019-05-10T22:20:42.696Z,101293.84
2019-05-10T22:25:44.730Z,101296.67
2019-05-10T22:30:46.697Z,101294.42
2019-05-10T22:35:48.810Z,101292.66
2019-05-10T22:40:50.745Z,101281.36
2019-05-10T22:45:54.222Z,101287.42
2019-05-10T22:50:58.523Z,101287.42
2019-05-10T22:56:00.879Z,101288.42
2019-05-10T23:01:02.802Z,101287.37
2019-05-10T23:06:04.903Z,101279.52
2019-05-10T23:11:08.337Z,101285.43
2019-05-10T23:16:10.352Z,101279.50
2019-05-10T23:21:14.939Z,101272.29
2019-05-10T23:26:17.142Z,101269.92
2019-05-10T23:31:18.984Z,101261.59
2019-05-10T23:36:21.044Z,101270.23
2019-05-10T23:41:25.264Z,101271.09
2019-05-10T23:46:27.461Z,101277.28
2019-05-10T23:51:29.400Z,101272.27
2019-05-10T23:56:32.444Z,101285.88
